METAR Data
IDs: Format: Raw Decoded Include TAF

Data at: 0027 UTC 25 Apr 2019

METAR for:KOXV (Knoxville Muni, IA, US)
Text:KOXV 250015Z AUTO 18008KT 10SM CLR 17/12 A2980 RMK AO2
Temperature: 17.0°C ( 63°F)
Dewpoint: 12.0°C ( 54°F) [RH = 72%]
Pressure (altimeter):29.80 inches Hg (1009.2 mb)
Winds:from the S (180 degrees) at 9 MPH (8 knots; 4.1 m/s)
Visibility:10 or more sm (16+ km)
Ceiling:at least 12,000 feet AGL
Clouds:sky clear below 12,000 feet AGL
QC Flag:automated observation with no human augmentation